Zagazig, Egypt
Current Conditions -  °F | °C
As of 7:00 AM on Thursday 25 Dec 2014 (Local Time) from HECA Reporting Station
Clear Clear  
Wind Chill: 48°   Ceiling: Unl
Heat Index: 48°   Visibility: 6mi
Dew Point: 48°   Wind: 0mph
Humidity: 100%   Direction: NA
Pressure: 30.21"   Gusts: NA
Location:  30.58°N, 31.48°E
Report Text: HECA 250500Z 00000KT CAVOK 09/09 Q1023 NOSIG
Loading
Personal Weather Stations






























Interactive Weather Map New forecast layout! Learn more

10-Day Weather Forecast

Advertisements
Track Severe Weather on mobile